sensor_id;sensor_type;location;lat;lon;timestamp;P1;durP1;ratioP1;P2;durP2;ratioP2
67274;SDS011;55463;52.324;5.122;2023-03-21T00:00:56;26.40;;;17.10;;
67274;SDS011;55463;52.324;5.122;2023-03-21T00:03:23;26.73;;;16.60;;
67274;SDS011;55463;52.324;5.122;2023-03-21T00:05:50;26.02;;;16.13;;
67274;SDS011;55463;52.324;5.122;2023-03-21T00:08:17;29.65;;;16.98;;
67274;SDS011;55463;52.324;5.122;2023-03-21T00:10:47;27.80;;;16.70;;
67274;SDS011;55463;52.324;5.122;2023-03-21T00:13:13;33.40;;;17.38;;
67274;SDS011;55463;52.324;5.122;2023-03-21T00:15:40;34.80;;;17.90;;
67274;SDS011;55463;52.324;5.122;2023-03-21T00:18:14;29.63;;;16.77;;
67274;SDS011;55463;52.324;5.122;2023-03-21T00:20:41;28.48;;;16.42;;
67274;SDS011;55463;52.324;5.122;2023-03-21T00:23:11;25.88;;;16.55;;
67274;SDS011;55463;52.324;5.122;2023-03-21T00:25:36;32.33;;;17.52;;
67274;SDS011;55463;52.324;5.122;2023-03-21T00:28:02;34.60;;;18.02;;
67274;SDS011;55463;52.324;5.122;2023-03-21T00:30:27;29.48;;;16.88;;
67274;SDS011;55463;52.324;5.122;2023-03-21T00:32:53;33.95;;;17.48;;
67274;SDS011;55463;52.324;5.122;2023-03-21T00:35:18;35.50;;;19.08;;
67274;SDS011;55463;52.324;5.122;2023-03-21T00:37:44;31.70;;;18.48;;
67274;SDS011;55463;52.324;5.122;2023-03-21T00:40:10;33.67;;;18.48;;
67274;SDS011;55463;52.324;5.122;2023-03-21T00:42:36;31.98;;;18.95;;
67274;SDS011;55463;52.324;5.122;2023-03-21T00:45:02;33.63;;;18.33;;
67274;SDS011;55463;52.324;5.122;2023-03-21T00:47:29;34.78;;;18.67;;
67274;SDS011;55463;52.324;5.122;2023-03-21T00:49:54;29.25;;;18.38;;
67274;SDS011;55463;52.324;5.122;2023-03-21T00:52:20;33.20;;;19.15;;
67274;SDS011;55463;52.324;5.122;2023-03-21T00:54:45;32.13;;;18.48;;
67274;SDS011;55463;52.324;5.122;2023-03-21T00:57:10;35.80;;;19.58;;
67274;SDS011;55463;52.324;5.122;2023-03-21T00:59:36;40.60;;;20.67;;
67274;SDS011;55463;52.324;5.122;2023-03-21T01:02:01;34.38;;;19.80;;
67274;SDS011;55463;52.324;5.122;2023-03-21T01:04:31;29.73;;;18.92;;
67274;SDS011;55463;52.324;5.122;2023-03-21T01:06:58;35.28;;;19.60;;
67274;SDS011;55463;52.324;5.122;2023-03-21T01:09:24;32.63;;;19.17;;
67274;SDS011;55463;52.324;5.122;2023-03-21T01:11:50;37.55;;;20.90;;
67274;SDS011;55463;52.324;5.122;2023-03-21T01:14:16;36.95;;;21.25;;
67274;SDS011;55463;52.324;5.122;2023-03-21T01:16:43;39.47;;;21.45;;
67274;SDS011;55463;52.324;5.122;2023-03-21T01:19:10;43.33;;;23.52;;
67274;SDS011;55463;52.324;5.122;2023-03-21T01:21:38;41.65;;;22.00;;
67274;SDS011;55463;52.324;5.122;2023-03-21T01:24:03;45.88;;;23.05;;
67274;SDS011;55463;52.324;5.122;2023-03-21T01:26:29;41.35;;;22.15;;
67274;SDS011;55463;52.324;5.122;2023-03-21T01:28:55;37.97;;;21.33;;
67274;SDS011;55463;52.324;5.122;2023-03-21T01:31:20;35.08;;;20.23;;
67274;SDS011;55463;52.324;5.122;2023-03-21T01:33:46;38.92;;;20.95;;
67274;SDS011;55463;52.324;5.122;2023-03-21T01:36:15;34.53;;;20.85;;
67274;SDS011;55463;52.324;5.122;2023-03-21T01:41:12;39.95;;;20.02;;
67274;SDS011;55463;52.324;5.122;2023-03-21T01:44:03;41.75;;;20.35;;
67274;SDS011;55463;52.324;5.122;2023-03-21T01:46:40;39.15;;;19.98;;
67274;SDS011;55463;52.324;5.122;2023-03-21T01:51:53;33.22;;;18.45;;
67274;SDS011;55463;52.324;5.122;2023-03-21T01:54:25;32.58;;;18.60;;
67274;SDS011;55463;52.324;5.122;2023-03-21T01:56:56;31.52;;;18.52;;
67274;SDS011;55463;52.324;5.122;2023-03-21T01:59:36;34.58;;;18.88;;
67274;SDS011;55463;52.324;5.122;2023-03-21T02:02:07;35.35;;;19.17;;
67274;SDS011;55463;52.324;5.122;2023-03-21T02:04:37;31.75;;;18.27;;
67274;SDS011;55463;52.324;5.122;2023-03-21T02:07:05;36.63;;;19.50;;
67274;SDS011;55463;52.324;5.122;2023-03-21T02:09:34;35.53;;;20.13;;
67274;SDS011;55463;52.324;5.122;2023-03-21T02:12:01;35.90;;;19.35;;
67274;SDS011;55463;52.324;5.122;2023-03-21T02:14:29;41.45;;;21.17;;
67274;SDS011;55463;52.324;5.122;2023-03-21T02:25:30;40.95;;;20.95;;
67274;SDS011;55463;52.324;5.122;2023-03-21T02:27:50;36.78;;;20.73;;
67274;SDS011;55463;52.324;5.122;2023-03-21T02:46:42;43.35;;;23.92;;
67274;SDS011;55463;52.324;5.122;2023-03-21T02:52:07;46.83;;;24.77;;
67274;SDS011;55463;52.324;5.122;2023-03-21T02:54:36;50.67;;;25.33;;
67274;SDS011;55463;52.324;5.122;2023-03-21T02:57:03;50.30;;;25.10;;
67274;SDS011;55463;52.324;5.122;2023-03-21T02:59:29;49.40;;;26.60;;
67274;SDS011;55463;52.324;5.122;2023-03-21T03:01:56;58.17;;;27.00;;
67274;SDS011;55463;52.324;5.122;2023-03-21T03:04:24;52.65;;;26.23;;
67274;SDS011;55463;52.324;5.122;2023-03-21T03:12:00;63.17;;;28.27;;
67274;SDS011;55463;52.324;5.122;2023-03-21T03:22:22;50.92;;;26.88;;
67274;SDS011;55463;52.324;5.122;2023-03-21T03:24:55;48.25;;;24.10;;
67274;SDS011;55463;52.324;5.122;2023-03-21T03:27:30;65.90;;;27.20;;
67274;SDS011;55463;52.324;5.122;2023-03-21T03:29:59;55.13;;;24.02;;
67274;SDS011;55463;52.324;5.122;2023-03-21T03:32:34;53.97;;;23.83;;
67274;SDS011;55463;52.324;5.122;2023-03-21T03:35:04;44.72;;;22.38;;
67274;SDS011;55463;52.324;5.122;2023-03-21T03:37:32;53.75;;;23.95;;
67274;SDS011;55463;52.324;5.122;2023-03-21T03:40:18;46.20;;;21.13;;
67274;SDS011;55463;52.324;5.122;2023-03-21T03:42:51;50.78;;;22.02;;
67274;SDS011;55463;52.324;5.122;2023-03-21T03:45:18;44.92;;;20.25;;
67274;SDS011;55463;52.324;5.122;2023-03-21T03:47:57;35.63;;;19.63;;
67274;SDS011;55463;52.324;5.122;2023-03-21T03:53:14;37.70;;;18.77;;
67274;SDS011;55463;52.324;5.122;2023-03-21T03:55:44;37.80;;;19.25;;
67274;SDS011;55463;52.324;5.122;2023-03-21T03:58:11;44.25;;;19.17;;
67274;SDS011;55463;52.324;5.122;2023-03-21T04:00:37;36.75;;;18.42;;
67274;SDS011;55463;52.324;5.122;2023-03-21T04:03:03;40.60;;;18.52;;
67274;SDS011;55463;52.324;5.122;2023-03-21T04:05:31;41.60;;;18.35;;
67274;SDS011;55463;52.324;5.122;2023-03-21T04:07:57;39.20;;;18.48;;
67274;SDS011;55463;52.324;5.122;2023-03-21T04:10:22;33.42;;;18.80;;
67274;SDS011;55463;52.324;5.122;2023-03-21T04:12:48;43.35;;;18.10;;
67274;SDS011;55463;52.324;5.122;2023-03-21T04:15:14;46.13;;;18.73;;
67274;SDS011;55463;52.324;5.122;2023-03-21T04:17:40;30.25;;;16.95;;
67274;SDS011;55463;52.324;5.122;2023-03-21T04:20:05;34.80;;;16.92;;
67274;SDS011;55463;52.324;5.122;2023-03-21T04:22:34;33.25;;;16.67;;
67274;SDS011;55463;52.324;5.122;2023-03-21T04:24:59;34.35;;;15.88;;
67274;SDS011;55463;52.324;5.122;2023-03-21T04:27:25;34.53;;;15.80;;
67274;SDS011;55463;52.324;5.122;2023-03-21T04:29:51;33.90;;;16.45;;
67274;SDS011;55463;52.324;5.122;2023-03-21T04:32:17;36.90;;;15.52;;
67274;SDS011;55463;52.324;5.122;2023-03-21T04:34:48;31.45;;;15.45;;
67274;SDS011;55463;52.324;5.122;2023-03-21T04:37:17;31.15;;;14.98;;
67274;SDS011;55463;52.324;5.122;2023-03-21T04:39:43;32.97;;;15.90;;
67274;SDS011;55463;52.324;5.122;2023-03-21T04:42:10;34.60;;;14.45;;
67274;SDS011;55463;52.324;5.122;2023-03-21T04:44:36;35.55;;;14.45;;
67274;SDS011;55463;52.324;5.122;2023-03-21T04:47:01;31.67;;;13.85;;
67274;SDS011;55463;52.324;5.122;2023-03-21T04:49:26;36.10;;;14.48;;
67274;SDS011;55463;52.324;5.122;2023-03-21T04:51:52;33.63;;;13.82;;
67274;SDS011;55463;52.324;5.122;2023-03-21T04:54:17;26.85;;;12.40;;
67274;SDS011;55463;52.324;5.122;2023-03-21T04:56:43;32.53;;;12.80;;
67274;SDS011;55463;52.324;5.122;2023-03-21T04:59:09;30.23;;;13.75;;
67274;SDS011;55463;52.324;5.122;2023-03-21T05:01:37;28.63;;;13.55;;
67274;SDS011;55463;52.324;5.122;2023-03-21T05:04:05;35.10;;;12.82;;
67274;SDS011;55463;52.324;5.122;2023-03-21T05:06:31;34.47;;;13.68;;
67274;SDS011;55463;52.324;5.122;2023-03-21T05:08:57;31.15;;;13.65;;
67274;SDS011;55463;52.324;5.122;2023-03-21T05:11:29;33.08;;;15.35;;
67274;SDS011;55463;52.324;5.122;2023-03-21T05:13:56;33.92;;;14.00;;
67274;SDS011;55463;52.324;5.122;2023-03-21T05:16:24;28.58;;;14.93;;
67274;SDS011;55463;52.324;5.122;2023-03-21T05:18:53;35.60;;;16.25;;
67274;SDS011;55463;52.324;5.122;2023-03-21T05:21:23;41.80;;;17.42;;
67274;SDS011;55463;52.324;5.122;2023-03-21T05:23:49;44.15;;;18.83;;
67274;SDS011;55463;52.324;5.122;2023-03-21T05:26:22;44.85;;;16.73;;
67274;SDS011;55463;52.324;5.122;2023-03-21T05:28:49;41.88;;;17.30;;
67274;SDS011;55463;52.324;5.122;2023-03-21T05:31:16;37.80;;;17.50;;
67274;SDS011;55463;52.324;5.122;2023-03-21T05:33:42;42.03;;;17.90;;
67274;SDS011;55463;52.324;5.122;2023-03-21T05:36:08;44.03;;;19.42;;
67274;SDS011;55463;52.324;5.122;2023-03-21T05:38:34;38.53;;;17.77;;
67274;SDS011;55463;52.324;5.122;2023-03-21T05:40:59;46.45;;;19.05;;
67274;SDS011;55463;52.324;5.122;2023-03-21T05:43:25;43.35;;;18.17;;
67274;SDS011;55463;52.324;5.122;2023-03-21T05:45:50;44.22;;;19.20;;
67274;SDS011;55463;52.324;5.122;2023-03-21T05:48:16;41.28;;;18.27;;
67274;SDS011;55463;52.324;5.122;2023-03-21T05:50:41;38.78;;;18.23;;
67274;SDS011;55463;52.324;5.122;2023-03-21T05:53:07;41.85;;;18.83;;
67274;SDS011;55463;52.324;5.122;2023-03-21T05:55:32;41.22;;;18.63;;
67274;SDS011;55463;52.324;5.122;2023-03-21T05:57:58;43.60;;;18.95;;
67274;SDS011;55463;52.324;5.122;2023-03-21T06:00:23;33.60;;;17.00;;
67274;SDS011;55463;52.324;5.122;2023-03-21T06:02:49;35.92;;;17.45;;
67274;SDS011;55463;52.324;5.122;2023-03-21T06:05:14;41.08;;;17.38;;
67274;SDS011;55463;52.324;5.122;2023-03-21T06:07:40;40.80;;;17.45;;
67274;SDS011;55463;52.324;5.122;2023-03-21T06:10:05;40.35;;;17.25;;
67274;SDS011;55463;52.324;5.122;2023-03-21T06:12:31;41.00;;;17.83;;
67274;SDS011;55463;52.324;5.122;2023-03-21T06:14:57;39.67;;;16.42;;
67274;SDS011;55463;52.324;5.122;2023-03-21T06:17:22;40.13;;;18.45;;
67274;SDS011;55463;52.324;5.122;2023-03-21T06:19:48;31.58;;;15.68;;
67274;SDS011;55463;52.324;5.122;2023-03-21T06:22:13;38.53;;;17.40;;
67274;SDS011;55463;52.324;5.122;2023-03-21T06:24:38;35.97;;;18.50;;
67274;SDS011;55463;52.324;5.122;2023-03-21T06:27:04;38.20;;;18.23;;
67274;SDS011;55463;52.324;5.122;2023-03-21T06:29:29;43.80;;;17.75;;
67274;SDS011;55463;52.324;5.122;2023-03-21T06:31:55;36.80;;;17.05;;
67274;SDS011;55463;52.324;5.122;2023-03-21T06:34:21;43.10;;;18.10;;
67274;SDS011;55463;52.324;5.122;2023-03-21T06:36:46;38.92;;;18.30;;
67274;SDS011;55463;52.324;5.122;2023-03-21T06:39:12;38.55;;;17.52;;
67274;SDS011;55463;52.324;5.122;2023-03-21T06:41:37;37.25;;;17.90;;
67274;SDS011;55463;52.324;5.122;2023-03-21T06:44:03;39.72;;;17.92;;
67274;SDS011;55463;52.324;5.122;2023-03-21T06:46:29;38.97;;;18.05;;
67274;SDS011;55463;52.324;5.122;2023-03-21T06:48:55;38.80;;;17.15;;
67274;SDS011;55463;52.324;5.122;2023-03-21T06:51:20;45.25;;;16.63;;
67274;SDS011;55463;52.324;5.122;2023-03-21T06:53:45;38.00;;;16.15;;
67274;SDS011;55463;52.324;5.122;2023-03-21T06:56:11;33.35;;;16.33;;
67274;SDS011;55463;52.324;5.122;2023-03-21T06:58:38;40.05;;;16.85;;
67274;SDS011;55463;52.324;5.122;2023-03-21T07:01:04;36.38;;;15.63;;
67274;SDS011;55463;52.324;5.122;2023-03-21T07:03:30;32.97;;;16.00;;
67274;SDS011;55463;52.324;5.122;2023-03-21T07:05:56;35.20;;;14.52;;
67274;SDS011;55463;52.324;5.122;2023-03-21T07:08:22;29.77;;;15.48;;
67274;SDS011;55463;52.324;5.122;2023-03-21T07:10:48;32.03;;;14.07;;
67274;SDS011;55463;52.324;5.122;2023-03-21T07:13:14;24.88;;;12.82;;
67274;SDS011;55463;52.324;5.122;2023-03-21T07:15:39;26.92;;;14.23;;
67274;SDS011;55463;52.324;5.122;2023-03-21T07:18:06;30.98;;;14.30;;
67274;SDS011;55463;52.324;5.122;2023-03-21T07:20:33;29.13;;;13.25;;
67274;SDS011;55463;52.324;5.122;2023-03-21T07:22:59;30.08;;;13.85;;
67274;SDS011;55463;52.324;5.122;2023-03-21T07:25:25;32.08;;;13.05;;
67274;SDS011;55463;52.324;5.122;2023-03-21T07:27:50;30.42;;;12.88;;
67274;SDS011;55463;52.324;5.122;2023-03-21T07:30:16;25.08;;;11.80;;
67274;SDS011;55463;52.324;5.122;2023-03-21T07:32:42;29.08;;;12.85;;
67274;SDS011;55463;52.324;5.122;2023-03-21T07:35:10;25.48;;;12.13;;
67274;SDS011;55463;52.324;5.122;2023-03-21T07:37:37;25.77;;;12.20;;
67274;SDS011;55463;52.324;5.122;2023-03-21T07:40:03;27.65;;;12.13;;
67274;SDS011;55463;52.324;5.122;2023-03-21T07:42:35;25.25;;;12.02;;
67274;SDS011;55463;52.324;5.122;2023-03-21T07:45:01;23.30;;;10.70;;
67274;SDS011;55463;52.324;5.122;2023-03-21T07:47:29;27.80;;;12.23;;
67274;SDS011;55463;52.324;5.122;2023-03-21T07:49:54;25.85;;;12.38;;
67274;SDS011;55463;52.324;5.122;2023-03-21T07:52:20;27.95;;;11.90;;
67274;SDS011;55463;52.324;5.122;2023-03-21T07:54:45;24.85;;;12.20;;
67274;SDS011;55463;52.324;5.122;2023-03-21T07:57:10;31.33;;;12.00;;
67274;SDS011;55463;52.324;5.122;2023-03-21T07:59:36;22.17;;;11.50;;
67274;SDS011;55463;52.324;5.122;2023-03-21T08:02:01;23.95;;;11.50;;
67274;SDS011;55463;52.324;5.122;2023-03-21T08:04:27;28.83;;;11.80;;
67274;SDS011;55463;52.324;5.122;2023-03-21T08:06:56;30.70;;;11.68;;
67274;SDS011;55463;52.324;5.122;2023-03-21T08:09:24;27.58;;;11.80;;
67274;SDS011;55463;52.324;5.122;2023-03-21T08:11:50;29.33;;;11.70;;
67274;SDS011;55463;52.324;5.122;2023-03-21T08:14:15;30.00;;;12.77;;
67274;SDS011;55463;52.324;5.122;2023-03-21T08:16:47;28.67;;;11.52;;
67274;SDS011;55463;52.324;5.122;2023-03-21T08:19:12;25.17;;;11.05;;
67274;SDS011;55463;52.324;5.122;2023-03-21T08:21:40;30.10;;;11.70;;
67274;SDS011;55463;52.324;5.122;2023-03-21T08:24:05;24.83;;;12.00;;
67274;SDS011;55463;52.324;5.122;2023-03-21T08:26:32;29.48;;;11.65;;
67274;SDS011;55463;52.324;5.122;2023-03-21T08:29:00;25.95;;;11.38;;
67274;SDS011;55463;52.324;5.122;2023-03-21T08:31:28;24.05;;;11.27;;
67274;SDS011;55463;52.324;5.122;2023-03-21T08:33:56;30.25;;;11.70;;
67274;SDS011;55463;52.324;5.122;2023-03-21T08:36:24;31.38;;;12.02;;
67274;SDS011;55463;52.324;5.122;2023-03-21T08:38:50;25.15;;;11.68;;
67274;SDS011;55463;52.324;5.122;2023-03-21T08:41:21;23.90;;;10.07;;
67274;SDS011;55463;52.324;5.122;2023-03-21T08:43:48;25.98;;;11.82;;
67274;SDS011;55463;52.324;5.122;2023-03-21T08:46:14;22.70;;;10.98;;
67274;SDS011;55463;52.324;5.122;2023-03-21T08:48:40;27.10;;;11.25;;
67274;SDS011;55463;52.324;5.122;2023-03-21T08:51:06;28.02;;;11.38;;
67274;SDS011;55463;52.324;5.122;2023-03-21T08:53:34;30.48;;;11.10;;
67274;SDS011;55463;52.324;5.122;2023-03-21T08:56:05;24.20;;;10.75;;
67274;SDS011;55463;52.324;5.122;2023-03-21T08:58:30;27.48;;;12.82;;
67274;SDS011;55463;52.324;5.122;2023-03-21T09:00:56;27.58;;;10.73;;
67274;SDS011;55463;52.324;5.122;2023-03-21T09:03:26;35.03;;;12.35;;
67274;SDS011;55463;52.324;5.122;2023-03-21T09:05:52;27.23;;;10.60;;
67274;SDS011;55463;52.324;5.122;2023-03-21T09:08:18;26.08;;;11.05;;
67274;SDS011;55463;52.324;5.122;2023-03-21T09:10:56;23.45;;;10.45;;
67274;SDS011;55463;52.324;5.122;2023-03-21T09:13:22;20.27;;;9.43;;
67274;SDS011;55463;52.324;5.122;2023-03-21T09:15:48;21.48;;;9.68;;
67274;SDS011;55463;52.324;5.122;2023-03-21T09:18:13;21.85;;;9.15;;
67274;SDS011;55463;52.324;5.122;2023-03-21T09:20:46;20.75;;;9.27;;
67274;SDS011;55463;52.324;5.122;2023-03-21T09:23:12;18.73;;;8.38;;
67274;SDS011;55463;52.324;5.122;2023-03-21T09:25:43;17.98;;;8.00;;
67274;SDS011;55463;52.324;5.122;2023-03-21T09:28:09;18.80;;;8.00;;
67274;SDS011;55463;52.324;5.122;2023-03-21T09:30:35;24.42;;;8.15;;
67274;SDS011;55463;52.324;5.122;2023-03-21T09:33:02;20.00;;;8.07;;
67274;SDS011;55463;52.324;5.122;2023-03-21T09:35:30;16.33;;;7.63;;
67274;SDS011;55463;52.324;5.122;2023-03-21T09:37:56;14.10;;;7.03;;
67274;SDS011;55463;52.324;5.122;2023-03-21T09:43:09;15.93;;;7.32;;
67274;SDS011;55463;52.324;5.122;2023-03-21T09:45:42;20.52;;;7.32;;
67274;SDS011;55463;52.324;5.122;2023-03-21T09:50:56;13.32;;;6.53;;
67274;SDS011;55463;52.324;5.122;2023-03-21T09:53:24;13.10;;;6.85;;
67274;SDS011;55463;52.324;5.122;2023-03-21T09:55:53;13.10;;;6.30;;
67274;SDS011;55463;52.324;5.122;2023-03-21T09:58:26;13.88;;;6.28;;
67274;SDS011;55463;52.324;5.122;2023-03-21T10:01:00;13.70;;;6.28;;
67274;SDS011;55463;52.324;5.122;2023-03-21T10:03:32;14.48;;;6.03;;
67274;SDS011;55463;52.324;5.122;2023-03-21T10:06:08;16.35;;;5.82;;
67274;SDS011;55463;52.324;5.122;2023-03-21T10:08:39;13.02;;;6.25;;
67274;SDS011;55463;52.324;5.122;2023-03-21T10:13:48;16.30;;;6.53;;
67274;SDS011;55463;52.324;5.122;2023-03-21T10:16:27;20.00;;;7.57;;
67274;SDS011;55463;52.324;5.122;2023-03-21T10:18:55;17.55;;;7.13;;
67274;SDS011;55463;52.324;5.122;2023-03-21T10:21:23;14.00;;;6.88;;
67274;SDS011;55463;52.324;5.122;2023-03-21T10:23:51;12.68;;;7.15;;
67274;SDS011;55463;52.324;5.122;2023-03-21T10:26:19;18.90;;;8.10;;
67274;SDS011;55463;52.324;5.122;2023-03-21T10:28:47;18.05;;;7.57;;
67274;SDS011;55463;52.324;5.122;2023-03-21T10:31:13;13.82;;;6.57;;
67274;SDS011;55463;52.324;5.122;2023-03-21T10:33:42;19.88;;;7.97;;
67274;SDS011;55463;52.324;5.122;2023-03-21T10:38:43;18.63;;;7.28;;
67274;SDS011;55463;52.324;5.122;2023-03-21T10:41:11;17.38;;;7.95;;
67274;SDS011;55463;52.324;5.122;2023-03-21T10:43:37;15.70;;;7.40;;
67274;SDS011;55463;52.324;5.122;2023-03-21T10:46:06;19.02;;;7.03;;
67274;SDS011;55463;52.324;5.122;2023-03-21T10:48:37;16.23;;;7.18;;
67274;SDS011;55463;52.324;5.122;2023-03-21T10:51:05;20.27;;;7.20;;
67274;SDS011;55463;52.324;5.122;2023-03-21T10:53:39;14.85;;;7.10;;
67274;SDS011;55463;52.324;5.122;2023-03-21T10:56:11;17.73;;;7.75;;
67274;SDS011;55463;52.324;5.122;2023-03-21T10:58:38;16.50;;;7.55;;
67274;SDS011;55463;52.324;5.122;2023-03-21T11:01:13;17.67;;;7.03;;
67274;SDS011;55463;52.324;5.122;2023-03-21T11:03:53;15.93;;;7.18;;
67274;SDS011;55463;52.324;5.122;2023-03-21T11:06:25;19.67;;;7.70;;
67274;SDS011;55463;52.324;5.122;2023-03-21T11:09:05;19.40;;;7.15;;
67274;SDS011;55463;52.324;5.122;2023-03-21T11:11:37;16.27;;;7.50;;
67274;SDS011;55463;52.324;5.122;2023-03-21T11:14:06;21.20;;;8.07;;
67274;SDS011;55463;52.324;5.122;2023-03-21T11:16:50;14.70;;;7.60;;
67274;SDS011;55463;52.324;5.122;2023-03-21T11:19:17;16.17;;;7.93;;
67274;SDS011;55463;52.324;5.122;2023-03-21T11:21:49;15.02;;;7.63;;
67274;SDS011;55463;52.324;5.122;2023-03-21T11:24:15;17.13;;;7.30;;
67274;SDS011;55463;52.324;5.122;2023-03-21T11:26:43;13.45;;;7.18;;
67274;SDS011;55463;52.324;5.122;2023-03-21T11:31:49;17.85;;;7.60;;
67274;SDS011;55463;52.324;5.122;2023-03-21T11:34:50;22.25;;;8.40;;
67274;SDS011;55463;52.324;5.122;2023-03-21T11:37:51;20.75;;;8.20;;
67274;SDS011;55463;52.324;5.122;2023-03-21T11:40:25;13.57;;;7.53;;
67274;SDS011;55463;52.324;5.122;2023-03-21T11:45:55;15.98;;;7.25;;
67274;SDS011;55463;52.324;5.122;2023-03-21T11:48:43;15.85;;;7.65;;
67274;SDS011;55463;52.324;5.122;2023-03-21T11:54:26;15.48;;;8.07;;
67274;SDS011;55463;52.324;5.122;2023-03-21T11:56:55;21.30;;;7.53;;
67274;SDS011;55463;52.324;5.122;2023-03-21T11:59:42;16.67;;;8.65;;
67274;SDS011;55463;52.324;5.122;2023-03-21T12:05:20;16.75;;;7.88;;
67274;SDS011;55463;52.324;5.122;2023-03-21T12:07:53;14.02;;;7.40;;
67274;SDS011;55463;52.324;5.122;2023-03-21T12:10:44;16.02;;;7.90;;
67274;SDS011;55463;52.324;5.122;2023-03-21T12:16:20;17.92;;;8.43;;
67274;SDS011;55463;52.324;5.122;2023-03-21T12:24:22;18.73;;;8.40;;
67274;SDS011;55463;52.324;5.122;2023-03-21T12:26:53;15.60;;;8.15;;
67274;SDS011;55463;52.324;5.122;2023-03-21T12:29:28;23.48;;;9.75;;
67274;SDS011;55463;52.324;5.122;2023-03-21T12:43:26;13.98;;;7.30;;
67274;SDS011;55463;52.324;5.122;2023-03-21T12:46:08;15.35;;;7.72;;
67274;SDS011;55463;52.324;5.122;2023-03-21T12:48:52;14.32;;;6.97;;
67274;SDS011;55463;52.324;5.122;2023-03-21T12:51:28;15.90;;;7.97;;
67274;SDS011;55463;52.324;5.122;2023-03-21T12:56:53;17.52;;;6.20;;
67274;SDS011;55463;52.324;5.122;2023-03-21T13:01:58;11.68;;;5.78;;
67274;SDS011;55463;52.324;5.122;2023-03-21T13:07:14;13.18;;;7.07;;
67274;SDS011;55463;52.324;5.122;2023-03-21T13:09:44;14.38;;;6.70;;
67274;SDS011;55463;52.324;5.122;2023-03-21T13:17:55;12.68;;;6.57;;
67274;SDS011;55463;52.324;5.122;2023-03-21T13:23:12;11.85;;;6.82;;
67274;SDS011;55463;52.324;5.122;2023-03-21T13:25:46;15.68;;;7.22;;
67274;SDS011;55463;52.324;5.122;2023-03-21T13:28:20;9.55;;;7.13;;
67274;SDS011;55463;52.324;5.122;2023-03-21T13:30:49;13.73;;;6.82;;
67274;SDS011;55463;52.324;5.122;2023-03-21T13:33:20;19.20;;;7.57;;
67274;SDS011;55463;52.324;5.122;2023-03-21T13:35:54;13.25;;;7.32;;
67274;SDS011;55463;52.324;5.122;2023-03-21T13:38:29;13.32;;;6.95;;
67274;SDS011;55463;52.324;5.122;2023-03-21T13:43:33;15.85;;;6.82;;
67274;SDS011;55463;52.324;5.122;2023-03-21T13:46:42;15.77;;;7.15;;
67274;SDS011;55463;52.324;5.122;2023-03-21T13:49:17;14.30;;;7.10;;
67274;SDS011;55463;52.324;5.122;2023-03-21T13:51:52;14.93;;;7.75;;
67274;SDS011;55463;52.324;5.122;2023-03-21T13:54:28;14.77;;;7.53;;
67274;SDS011;55463;52.324;5.122;2023-03-21T13:56:58;10.93;;;6.68;;
67274;SDS011;55463;52.324;5.122;2023-03-21T14:02:29;16.98;;;6.93;;
67274;SDS011;55463;52.324;5.122;2023-03-21T14:05:01;18.55;;;7.35;;
67274;SDS011;55463;52.324;5.122;2023-03-21T14:07:30;15.70;;;7.30;;
67274;SDS011;55463;52.324;5.122;2023-03-21T14:09:59;13.13;;;7.55;;
67274;SDS011;55463;52.324;5.122;2023-03-21T14:12:29;15.25;;;8.20;;
67274;SDS011;55463;52.324;5.122;2023-03-21T14:15:05;12.13;;;7.53;;
67274;SDS011;55463;52.324;5.122;2023-03-21T14:17:37;12.30;;;6.85;;
67274;SDS011;55463;52.324;5.122;2023-03-21T14:23:02;12.77;;;7.38;;
67274;SDS011;55463;52.324;5.122;2023-03-21T14:25:35;12.00;;;7.50;;
67274;SDS011;55463;52.324;5.122;2023-03-21T14:30:51;18.05;;;7.93;;
67274;SDS011;55463;52.324;5.122;2023-03-21T14:33:34;15.73;;;7.70;;
67274;SDS011;55463;52.324;5.122;2023-03-21T14:36:04;16.25;;;7.53;;
67274;SDS011;55463;52.324;5.122;2023-03-21T14:38:34;15.75;;;7.80;;
67274;SDS011;55463;52.324;5.122;2023-03-21T14:41:01;16.83;;;7.40;;
67274;SDS011;55463;52.324;5.122;2023-03-21T14:43:28;11.88;;;7.38;;
67274;SDS011;55463;52.324;5.122;2023-03-21T14:45:55;25.85;;;7.82;;
67274;SDS011;55463;52.324;5.122;2023-03-21T14:48:54;15.32;;;6.93;;
67274;SDS011;55463;52.324;5.122;2023-03-21T14:51:13;11.50;;;6.93;;
67274;SDS011;55463;52.324;5.122;2023-03-21T14:53:40;12.05;;;6.90;;
67274;SDS011;55463;52.324;5.122;2023-03-21T14:58:52;14.20;;;6.95;;
67274;SDS011;55463;52.324;5.122;2023-03-21T15:01:24;16.58;;;7.50;;
67274;SDS011;55463;52.324;5.122;2023-03-21T15:03:56;13.70;;;6.78;;
67274;SDS011;55463;52.324;5.122;2023-03-21T15:06:23;12.77;;;7.22;;
67274;SDS011;55463;52.324;5.122;2023-03-21T15:09:13;15.25;;;7.55;;
67274;SDS011;55463;52.324;5.122;2023-03-21T15:11:39;17.73;;;7.45;;
67274;SDS011;55463;52.324;5.122;2023-03-21T15:14:06;14.98;;;6.53;;
67274;SDS011;55463;52.324;5.122;2023-03-21T15:16:33;13.90;;;7.57;;
67274;SDS011;55463;52.324;5.122;2023-03-21T15:18:59;12.88;;;6.85;;
67274;SDS011;55463;52.324;5.122;2023-03-21T15:21:27;13.77;;;6.85;;
67274;SDS011;55463;52.324;5.122;2023-03-21T15:24:03;13.18;;;6.22;;
67274;SDS011;55463;52.324;5.122;2023-03-21T15:26:38;16.33;;;6.88;;
67274;SDS011;55463;52.324;5.122;2023-03-21T15:29:07;10.80;;;6.80;;
67274;SDS011;55463;52.324;5.122;2023-03-21T15:31:33;13.48;;;6.85;;
67274;SDS011;55463;52.324;5.122;2023-03-21T15:34:00;12.75;;;6.93;;
67274;SDS011;55463;52.324;5.122;2023-03-21T15:36:31;13.35;;;6.53;;
67274;SDS011;55463;52.324;5.122;2023-03-21T15:39:01;10.63;;;6.43;;
67274;SDS011;55463;52.324;5.122;2023-03-21T15:41:30;10.18;;;6.30;;
67274;SDS011;55463;52.324;5.122;2023-03-21T15:44:02;13.20;;;6.93;;
67274;SDS011;55463;52.324;5.122;2023-03-21T15:51:37;12.15;;;6.05;;
67274;SDS011;55463;52.324;5.122;2023-03-21T15:54:09;14.55;;;7.22;;
67274;SDS011;55463;52.324;5.122;2023-03-21T15:56:37;22.77;;;7.78;;
67274;SDS011;55463;52.324;5.122;2023-03-21T15:59:06;16.48;;;7.00;;
67274;SDS011;55463;52.324;5.122;2023-03-21T16:01:38;14.63;;;8.27;;
67274;SDS011;55463;52.324;5.122;2023-03-21T16:04:05;15.30;;;8.68;;
67274;SDS011;55463;52.324;5.122;2023-03-21T16:06:35;15.63;;;8.75;;
67274;SDS011;55463;52.324;5.122;2023-03-21T16:11:52;16.02;;;7.97;;
67274;SDS011;55463;52.324;5.122;2023-03-21T16:14:25;11.75;;;7.55;;
67274;SDS011;55463;52.324;5.122;2023-03-21T16:16:52;12.18;;;7.18;;
67274;SDS011;55463;52.324;5.122;2023-03-21T16:19:17;13.65;;;6.60;;
67274;SDS011;55463;52.324;5.122;2023-03-21T16:21:43;8.95;;;6.07;;
67274;SDS011;55463;52.324;5.122;2023-03-21T16:24:09;10.23;;;6.55;;
67274;SDS011;55463;52.324;5.122;2023-03-21T16:26:47;10.48;;;5.57;;
67274;SDS011;55463;52.324;5.122;2023-03-21T16:29:16;9.95;;;6.00;;
67274;SDS011;55463;52.324;5.122;2023-03-21T16:31:43;11.93;;;6.25;;
67274;SDS011;55463;52.324;5.122;2023-03-21T16:34:11;11.43;;;5.85;;
67274;SDS011;55463;52.324;5.122;2023-03-21T16:36:38;11.70;;;6.28;;
67274;SDS011;55463;52.324;5.122;2023-03-21T16:39:21;12.80;;;6.30;;
67274;SDS011;55463;52.324;5.122;2023-03-21T16:41:50;11.13;;;7.18;;
67274;SDS011;55463;52.324;5.122;2023-03-21T16:44:15;15.80;;;9.32;;
67274;SDS011;55463;52.324;5.122;2023-03-21T16:46:41;16.67;;;9.60;;